createdAt,value
2018-08-10T00:02:02.394Z,21.80
2018-08-10T00:04:32.548Z,20.77
2018-08-10T00:07:13.469Z,22.50
2018-08-10T00:09:42.729Z,21.43
2018-08-10T00:12:12.124Z,20.60
2018-08-10T00:14:43.723Z,21.10
2018-08-10T00:17:24.262Z,20.87
2018-08-10T00:20:05.647Z,21.60
2018-08-10T00:23:07.152Z,21.73
2018-08-10T00:25:36.317Z,20.87
2018-08-10T00:28:13.708Z,21.77
2018-08-10T00:30:44.524Z,21.17
2018-08-10T00:33:26.558Z,23.63
2018-08-10T00:35:57.208Z,20.87
2018-08-10T00:38:33.325Z,20.43
2018-08-10T00:44:43.758Z,20.80
2018-08-10T00:47:19.298Z,21.87
2018-08-10T00:49:59.228Z,22.70
2018-08-10T00:53:02.331Z,22.67
2018-08-10T00:55:32.667Z,23.47
2018-08-10T00:58:04.271Z,23.30
2018-08-10T01:00:34.952Z,22.17
2018-08-10T01:03:13.316Z,23.37
2018-08-10T01:05:48.763Z,23.13
2018-08-10T01:08:18.078Z,22.40
2018-08-10T01:10:47.371Z,23.60
2018-08-10T01:13:26.496Z,22.80
2018-08-10T01:15:55.648Z,22.57
2018-08-10T01:18:25.420Z,22.70
2018-08-10T01:20:55.139Z,23.07
2018-08-10T01:23:24.838Z,22.97
2018-08-10T01:26:35.997Z,23.57
2018-08-10T01:29:15.237Z,23.03
2018-08-10T01:31:44.496Z,24.57
2018-08-10T01:34:20.009Z,21.77
2018-08-10T01:37:05.440Z,22.10
2018-08-10T01:39:34.592Z,23.30
2018-08-10T01:42:04.368Z,23.03
2018-08-10T01:44:33.700Z,23.50
2018-08-10T01:47:03.460Z,23.53
2018-08-10T01:49:32.741Z,24.97
2018-08-10T01:52:02.344Z,25.00
2018-08-10T01:54:31.484Z,25.13
2018-08-10T01:57:03.810Z,25.30
2018-08-10T02:02:45.516Z,23.80
2018-08-10T02:05:16.717Z,25.90
2018-08-10T02:08:08.332Z,25.67
2018-08-10T02:10:38.684Z,25.37
2018-08-10T02:13:07.995Z,25.93
2018-08-10T02:15:37.490Z,26.63
2018-08-10T02:18:16.111Z,24.73
2018-08-10T02:20:46.477Z,25.57
2018-08-10T02:23:15.804Z,25.60
2018-08-10T02:25:45.229Z,25.03
2018-08-10T02:28:33.114Z,24.50
2018-08-10T02:31:03.083Z,22.53
2018-08-10T02:33:32.895Z,23.43
2018-08-10T02:36:09.220Z,22.80
2018-08-10T02:38:38.602Z,22.03
2018-08-10T02:41:07.679Z,22.20
2018-08-10T02:43:38.034Z,23.43
2018-08-10T02:46:07.181Z,23.50
2018-08-10T02:48:36.391Z,23.40
2018-08-10T02:51:05.638Z,23.63
2018-08-10T02:53:34.951Z,23.00
2018-08-10T02:56:15.930Z,24.03
2018-08-10T02:58:45.432Z,23.20
2018-08-10T03:04:26.161Z,24.83
2018-08-10T03:07:11.501Z,25.13
2018-08-10T03:09:40.717Z,27.60
2018-08-10T03:12:11.621Z,29.83
2018-08-10T03:14:41.359Z,32.53
2018-08-10T03:17:10.909Z,31.53
2018-08-10T03:19:40.042Z,31.63
2018-08-10T03:22:09.756Z,30.17
2018-08-10T03:24:38.948Z,29.33
2018-08-10T03:27:08.718Z,30.50
2018-08-10T03:29:38.034Z,28.00
2018-08-10T03:32:07.379Z,28.17
2018-08-10T03:34:37.202Z,29.73
2018-08-10T03:37:07.706Z,30.43
2018-08-10T03:39:36.879Z,27.80
2018-08-10T03:42:06.190Z,27.40
2018-08-10T03:44:35.326Z,25.07
2018-08-10T03:47:04.600Z,26.07
2018-08-10T03:49:33.603Z,25.13
2018-08-10T03:52:04.440Z,26.37
2018-08-10T03:54:33.457Z,25.20
2018-08-10T03:57:03.039Z,26.37
2018-08-10T03:59:32.087Z,26.13
2018-08-10T04:02:01.806Z,25.10
2018-08-10T04:04:30.904Z,26.70
2018-08-10T04:07:00.208Z,26.90
2018-08-10T04:09:29.305Z,27.27
2018-08-10T04:11:58.337Z,27.23
2018-08-10T04:14:27.446Z,28.27
2018-08-10T04:16:56.512Z,27.67
2018-08-10T04:19:25.679Z,28.07
2018-08-10T04:21:54.826Z,28.70
2018-08-10T04:24:24.035Z,28.97
2018-08-10T04:26:53.214Z,29.53
2018-08-10T04:29:22.357Z,28.03
2018-08-10T04:31:51.414Z,27.47
2018-08-10T04:34:20.473Z,26.57
2018-08-10T04:36:49.676Z,27.70
2018-08-10T04:39:18.742Z,26.37
2018-08-10T04:41:47.808Z,25.97
2018-08-10T04:44:16.943Z,26.63
2018-08-10T04:46:45.995Z,26.27
2018-08-10T04:49:15.126Z,24.60
2018-08-10T04:51:44.240Z,22.63
2018-08-10T04:54:13.425Z,22.70
2018-08-10T04:56:43.516Z,20.83
2018-08-10T04:59:12.608Z,20.93
2018-08-10T05:01:42.196Z,21.87
2018-08-10T05:04:11.247Z,20.63
2018-08-10T05:06:40.626Z,22.67
2018-08-10T05:09:12.043Z,22.47
2018-08-10T05:11:41.225Z,20.60
2018-08-10T05:14:10.486Z,21.30
2018-08-10T05:16:39.657Z,20.33
2018-08-10T05:19:08.947Z,19.50
2018-08-10T05:21:38.221Z,19.40
2018-08-10T05:24:07.363Z,18.50
2018-08-10T05:26:36.394Z,20.40
2018-08-10T05:29:05.586Z,19.47
2018-08-10T05:31:34.647Z,18.77
2018-08-10T05:34:04.248Z,18.07
2018-08-10T05:36:33.305Z,17.40
2018-08-10T05:39:03.009Z,18.23
2018-08-10T05:41:32.125Z,17.90
2018-08-10T05:44:01.818Z,19.40
2018-08-10T05:46:30.940Z,16.73
2018-08-10T05:49:00.208Z,18.13
2018-08-10T05:51:29.400Z,17.40
2018-08-10T05:53:58.622Z,18.30
2018-08-10T05:56:27.705Z,20.97
2018-08-10T05:58:56.809Z,20.47
2018-08-10T06:01:25.894Z,32.53
2018-08-10T06:03:55.200Z,16.70
2018-08-10T06:06:24.101Z,17.60
2018-08-10T06:08:53.088Z,20.47
2018-08-10T06:11:22.293Z,18.27
2018-08-10T06:13:51.475Z,17.30
2018-08-10T06:16:20.616Z,19.90
2018-08-10T06:18:49.693Z,17.10
2018-08-10T06:21:18.781Z,17.70
2018-08-10T06:23:47.878Z,16.23
2018-08-10T06:26:17.027Z,16.60
2018-08-10T06:28:46.075Z,17.30
2018-08-10T06:31:15.214Z,16.47
2018-08-10T06:33:44.467Z,16.10
2018-08-10T06:36:13.592Z,17.20
2018-08-10T06:38:42.712Z,15.20
2018-08-10T06:41:12.127Z,15.87
2018-08-10T06:43:41.209Z,16.50
2018-08-10T06:46:10.248Z,16.00
2018-08-10T06:48:39.477Z,16.27
2018-08-10T06:51:08.620Z,16.50
2018-08-10T06:53:37.751Z,15.57
2018-08-10T06:56:07.000Z,14.60
2018-08-10T06:58:37.765Z,15.53
2018-08-10T07:01:09.188Z,15.83
2018-08-10T07:03:40.269Z,15.37
2018-08-10T07:06:10.177Z,15.53
2018-08-10T07:13:24.028Z,15.03
2018-08-10T07:16:02.212Z,15.47
2018-08-10T07:18:31.352Z,14.90
2018-08-10T07:21:01.450Z,13.87
2018-08-10T07:23:30.526Z,15.30
2018-08-10T07:25:59.685Z,14.77
2018-08-10T07:28:28.812Z,15.33
2018-08-10T07:30:57.939Z,13.13
2018-08-10T07:33:27.051Z,13.33
2018-08-10T07:35:56.995Z,13.97
2018-08-10T07:38:26.199Z,14.20
2018-08-10T07:40:55.411Z,14.03
2018-08-10T07:43:25.131Z,13.23
2018-08-10T07:45:54.233Z,13.97
2018-08-10T07:48:23.634Z,14.30
2018-08-10T07:50:52.723Z,14.00
2018-08-10T07:53:21.823Z,14.47
2018-08-10T07:55:50.960Z,13.43
2018-08-10T07:58:20.087Z,12.77
2018-08-10T08:00:49.471Z,13.70
2018-08-10T08:03:18.597Z,13.83
2018-08-10T08:05:47.974Z,13.53
2018-08-10T08:08:17.119Z,12.37
2018-08-10T08:10:46.391Z,13.13
2018-08-10T08:13:15.459Z,11.83
2018-08-10T08:15:44.528Z,11.87
2018-08-10T08:18:13.692Z,11.93
2018-08-10T08:20:54.330Z,11.40
2018-08-10T08:23:23.489Z,11.37
2018-08-10T08:25:52.624Z,11.20
2018-08-10T08:28:25.801Z,10.80
2018-08-10T08:30:55.081Z,11.73
2018-08-10T08:33:24.453Z,11.60
2018-08-10T08:35:53.919Z,11.33
2018-08-10T08:38:33.875Z,12.13
2018-08-10T08:41:03.667Z,10.90
2018-08-10T08:43:43.329Z,10.40
2018-08-10T08:46:12.797Z,10.17
2018-08-10T08:48:43.319Z,10.17
2018-08-10T08:51:15.632Z,10.60
2018-08-10T08:53:44.796Z,10.60
2018-08-10T08:56:16.319Z,11.43
2018-08-10T08:58:46.537Z,10.73
2018-08-10T09:01:16.251Z,10.57
2018-08-10T09:05:09.301Z,10.73
2018-08-10T09:07:39.108Z,10.03
2018-08-10T09:10:11.572Z,11.33
2018-08-10T09:12:40.774Z,10.30
2018-08-10T09:15:11.722Z,10.50
2018-08-10T09:17:41.026Z,10.57
2018-08-10T09:20:10.861Z,10.37
2018-08-10T09:22:40.053Z,11.13
2018-08-10T09:25:18.583Z,10.97
2018-08-10T09:27:47.667Z,11.30
2018-08-10T09:30:20.288Z,10.90
2018-08-10T09:32:49.419Z,10.00
2018-08-10T09:35:20.941Z,11.07
2018-08-10T09:37:50.009Z,11.40
2018-08-10T09:40:21.354Z,10.87
2018-08-10T09:42:50.500Z,11.07
2018-08-10T09:45:19.862Z,10.50
2018-08-10T09:47:50.049Z,9.70
2018-08-10T09:50:20.631Z,9.63
2018-08-10T09:52:59.030Z,10.23
2018-08-10T09:55:36.350Z,9.57
2018-08-10T10:03:50.512Z,10.20
2018-08-10T10:06:19.607Z,10.27
2018-08-10T10:08:48.662Z,10.53
2018-08-10T10:11:17.805Z,10.83
2018-08-10T10:13:46.857Z,10.77
2018-08-10T10:16:22.384Z,11.03
2018-08-10T10:18:51.452Z,10.27
2018-08-10T10:21:20.492Z,10.63
2018-08-10T10:23:49.622Z,10.23
2018-08-10T10:26:18.682Z,9.83
2018-08-10T10:28:47.699Z,9.57
2018-08-10T10:31:16.789Z,10.43
2018-08-10T10:33:45.748Z,10.43
2018-08-10T10:36:14.786Z,10.30
2018-08-10T10:38:43.810Z,10.10
2018-08-10T10:41:12.831Z,11.00
2018-08-10T10:43:41.816Z,10.60
2018-08-10T10:46:11.205Z,10.37
2018-08-10T10:48:40.206Z,11.00
2018-08-10T10:51:15.419Z,10.70
2018-08-10T10:53:44.872Z,10.80
2018-08-10T10:56:14.028Z,10.53
2018-08-10T10:58:43.166Z,11.53
2018-08-10T11:01:12.496Z,11.07
2018-08-10T11:03:41.543Z,11.13
2018-08-10T11:06:11.000Z,11.67
2018-08-10T11:08:39.915Z,11.03
2018-08-10T11:11:09.535Z,10.90
2018-08-10T11:13:38.570Z,10.37
2018-08-10T11:16:07.652Z,10.13
2018-08-10T11:18:36.653Z,9.47
2018-08-10T11:21:05.691Z,10.10
2018-08-10T11:23:34.617Z,9.30
2018-08-10T11:26:04.347Z,9.10
2018-08-10T11:28:33.285Z,8.83
2018-08-10T11:31:02.845Z,9.23
2018-08-10T11:33:31.952Z,9.13
2018-08-10T11:36:01.549Z,9.03
2018-08-10T11:38:30.578Z,9.23
2018-08-10T11:40:59.625Z,9.00
2018-08-10T11:43:28.668Z,8.47
2018-08-10T11:45:57.623Z,8.50
2018-08-10T11:48:26.585Z,8.20
2018-08-10T11:50:55.618Z,8.87
2018-08-10T11:53:24.600Z,9.27
2018-08-10T11:55:53.562Z,9.03
2018-08-10T11:58:22.842Z,9.57
2018-08-10T12:00:51.841Z,8.70
2018-08-10T12:03:20.776Z,9.37
2018-08-10T12:05:49.835Z,9.50
2018-08-10T12:08:18.824Z,9.60
2018-08-10T12:10:47.774Z,9.00
2018-08-10T12:13:17.756Z,9.93
2018-08-10T12:15:46.915Z,9.40
2018-08-10T12:18:15.954Z,9.13
2018-08-10T12:20:44.924Z,9.83
2018-08-10T12:23:13.930Z,10.63
2018-08-10T12:25:42.905Z,10.93
2018-08-10T12:28:11.938Z,10.40
2018-08-10T12:30:40.882Z,9.93
2018-08-10T12:33:10.279Z,11.17
2018-08-10T12:35:39.331Z,11.33
2018-08-10T12:38:08.800Z,11.43
2018-08-10T12:40:37.769Z,11.73
2018-08-10T12:43:06.926Z,11.73
2018-08-10T12:45:35.922Z,12.60
2018-08-10T12:48:05.550Z,12.13
2018-08-10T12:50:34.684Z,11.80
2018-08-10T12:53:04.097Z,11.73
2018-08-10T12:55:33.019Z,12.73
2018-08-10T12:58:02.468Z,13.57
2018-08-10T13:00:31.429Z,13.53
2018-08-10T13:03:01.009Z,14.87
2018-08-10T13:05:29.914Z,15.53
2018-08-10T13:07:58.991Z,14.20
2018-08-10T13:10:27.946Z,13.90
2018-08-10T13:12:56.870Z,14.17
2018-08-10T13:15:25.847Z,14.40
2018-08-10T13:17:54.814Z,14.80
2018-08-10T13:20:24.027Z,15.37
2018-08-10T13:22:52.990Z,12.93
2018-08-10T13:25:21.883Z,13.67
2018-08-10T13:27:50.911Z,12.90
2018-08-10T13:30:19.900Z,12.83
2018-08-10T13:32:48.822Z,11.97
2018-08-10T13:35:19.098Z,12.40
2018-08-10T13:37:48.128Z,12.80
2018-08-10T13:40:19.174Z,12.73
2018-08-10T13:42:48.124Z,12.57
2018-08-10T13:45:19.206Z,10.73
2018-08-10T13:47:48.285Z,10.87
2018-08-10T13:50:19.925Z,11.37
2018-08-10T13:52:48.911Z,11.13
2018-08-10T13:55:19.062Z,11.20
2018-08-10T13:57:49.529Z,11.63
2018-08-10T14:00:21.859Z,11.43
2018-08-10T14:02:58.511Z,11.80
2018-08-10T14:05:27.746Z,11.20
2018-08-10T14:07:56.771Z,11.20
2018-08-10T14:10:25.860Z,11.83
2018-08-10T14:12:54.832Z,11.43
2018-08-10T14:15:23.901Z,11.47
2018-08-10T14:17:54.204Z,11.27
2018-08-10T14:20:24.100Z,11.83
2018-08-10T14:22:53.221Z,11.47
2018-08-10T14:25:22.262Z,12.37
2018-08-10T14:27:51.249Z,11.97
2018-08-10T14:30:25.263Z,12.83
2018-08-10T14:32:54.262Z,11.80
2018-08-10T14:35:23.201Z,12.60
2018-08-10T14:37:52.272Z,11.93
2018-08-10T14:40:21.755Z,12.50
2018-08-10T14:42:51.994Z,12.20
2018-08-10T14:45:23.710Z,12.13
2018-08-10T14:47:54.451Z,11.43
2018-08-10T14:50:24.859Z,11.37
2018-08-10T14:52:53.828Z,12.73
2018-08-10T14:55:22.917Z,11.67
2018-08-10T14:57:51.909Z,12.07
2018-08-10T15:00:21.966Z,12.27
2018-08-10T15:02:51.547Z,11.93
2018-08-10T15:05:20.756Z,11.77
2018-08-10T15:07:50.592Z,11.30
2018-08-10T15:10:19.606Z,11.90
2018-08-10T15:12:48.942Z,11.53
2018-08-10T15:17:41.795Z,11.63
2018-08-10T15:20:18.044Z,11.23
2018-08-10T15:22:47.158Z,12.30
2018-08-10T15:25:18.508Z,11.83
2018-08-10T15:27:48.281Z,11.23
2018-08-10T15:30:20.016Z,11.10
2018-08-10T15:32:50.741Z,10.37
2018-08-10T15:35:19.942Z,10.27
2018-08-10T15:37:50.509Z,10.50
2018-08-10T15:40:20.397Z,10.73
2018-08-10T15:42:49.479Z,10.07
2018-08-10T15:45:20.314Z,10.63
2018-08-10T15:47:49.535Z,12.03
2018-08-10T15:50:18.661Z,10.40
2018-08-10T15:52:47.910Z,9.90
2018-08-10T15:55:17.317Z,12.13
2018-08-10T15:57:46.443Z,12.63
2018-08-10T16:00:22.702Z,12.40
2018-08-10T16:02:51.736Z,11.57
2018-08-10T16:05:20.809Z,12.53
2018-08-10T16:07:49.882Z,13.73
2018-08-10T16:10:18.960Z,10.90
2018-08-10T16:12:48.034Z,11.77
2018-08-10T16:15:18.566Z,11.67
2018-08-10T16:17:47.700Z,12.73
2018-08-10T16:20:21.805Z,12.50
2018-08-10T16:22:51.247Z,13.43
2018-08-10T16:25:20.407Z,11.93
2018-08-10T16:27:49.661Z,10.47
2018-08-10T16:30:18.821Z,9.70
2018-08-10T16:32:48.006Z,9.30
2018-08-10T16:35:17.674Z,8.97
2018-08-10T16:37:47.569Z,8.80
2018-08-10T16:40:18.841Z,11.70
2018-08-10T16:42:47.870Z,8.57
2018-08-10T16:45:17.793Z,8.80
2018-08-10T16:47:49.459Z,7.90
2018-08-10T16:50:19.565Z,10.50
2018-08-10T16:52:48.697Z,8.13
2018-08-10T16:55:19.248Z,10.53
2018-08-10T16:57:48.887Z,9.37
2018-08-10T17:00:21.647Z,7.73
2018-08-10T17:02:50.729Z,9.00
2018-08-10T17:05:21.526Z,12.20
2018-08-10T17:07:51.931Z,7.43
2018-08-10T17:10:21.043Z,8.70
2018-08-10T17:12:51.202Z,8.17
2018-08-10T17:15:21.315Z,7.67
2018-08-10T17:17:50.445Z,7.83
2018-08-10T17:20:21.147Z,7.00
2018-08-10T17:22:50.233Z,8.17
2018-08-10T17:28:12.099Z,9.43
2018-08-10T17:30:41.536Z,10.50
2018-08-10T17:33:10.775Z,6.50
2018-08-10T17:35:39.816Z,8.23
2018-08-10T17:38:08.974Z,9.97
2018-08-10T17:40:38.058Z,6.53
2018-08-10T17:43:07.185Z,6.87
2018-08-10T17:45:36.356Z,12.80
2018-08-10T17:48:06.126Z,10.97
2018-08-10T17:50:35.238Z,7.27
2018-08-10T17:53:04.680Z,7.73
2018-08-10T17:55:33.646Z,5.97
2018-08-10T17:58:03.195Z,6.77
2018-08-10T18:00:32.294Z,7.07
2018-08-10T18:03:01.804Z,8.13
2018-08-10T18:05:30.886Z,6.87
2018-08-10T18:08:00.044Z,9.67
2018-08-10T18:10:35.568Z,10.77
2018-08-10T18:13:04.718Z,7.27
2018-08-10T18:15:33.681Z,6.87
2018-08-10T18:18:03.318Z,7.00
2018-08-10T18:20:32.356Z,7.43
2018-08-10T18:23:03.238Z,7.03
2018-08-10T18:25:32.338Z,6.20
2018-08-10T18:28:01.806Z,5.37
2018-08-10T18:30:30.961Z,7.63
2018-08-10T18:33:00.161Z,7.87
2018-08-10T18:35:29.138Z,13.30
2018-08-10T18:37:58.280Z,8.70
2018-08-10T18:40:27.452Z,8.10
2018-08-10T18:42:56.519Z,8.20
2018-08-10T18:45:26.795Z,11.93
2018-08-10T18:47:55.874Z,10.80
2018-08-10T18:50:25.069Z,11.60
2018-08-10T18:52:54.172Z,8.57
2018-08-10T18:55:23.967Z,9.77
2018-08-10T18:57:53.515Z,8.07
2018-08-10T19:00:25.079Z,9.70
2018-08-10T19:02:54.356Z,9.17
2018-08-10T19:05:23.911Z,8.57
2018-08-10T19:07:52.941Z,9.53
2018-08-10T19:10:23.927Z,7.80
2018-08-10T19:12:52.917Z,8.23
2018-08-10T19:15:21.906Z,9.40
2018-08-10T19:17:50.909Z,10.83
2018-08-10T19:20:20.975Z,6.73
2018-08-10T19:22:49.966Z,10.03
2018-08-10T19:25:24.094Z,6.63
2018-08-10T19:27:53.092Z,9.63
2018-08-10T19:30:26.254Z,8.47
2018-08-10T19:32:55.232Z,12.77
2018-08-10T19:35:24.532Z,10.10
2018-08-10T19:37:53.598Z,7.67
2018-08-10T19:40:25.115Z,7.30
2018-08-10T19:42:54.108Z,13.37
2018-08-10T19:45:23.202Z,7.70
2018-08-10T19:48:12.910Z,9.47
2018-08-10T19:50:44.698Z,12.67
2018-08-10T19:53:13.993Z,11.57
2018-08-10T19:55:43.155Z,11.87
2018-08-10T19:58:16.235Z,9.87
2018-08-10T20:00:47.640Z,10.30
2018-08-10T20:03:17.203Z,9.03
2018-08-10T20:05:46.296Z,7.87
2018-08-10T20:08:15.859Z,8.93
2018-08-10T20:10:45.134Z,13.47
2018-08-10T20:13:14.380Z,9.03
2018-08-10T20:15:43.757Z,13.87
2018-08-10T20:18:13.024Z,8.80
2018-08-10T20:20:42.290Z,9.87
2018-08-10T20:23:12.784Z,10.37
2018-08-10T20:25:55.633Z,10.50
2018-08-10T20:28:35.807Z,8.60
2018-08-10T20:31:17.250Z,8.27
2018-08-10T20:33:59.175Z,7.87
2018-08-10T20:36:28.391Z,8.27
2018-08-10T20:39:27.536Z,7.77
2018-08-10T20:42:16.024Z,8.13
2018-08-10T20:44:45.870Z,9.23
2018-08-10T20:47:16.050Z,6.60
2018-08-10T20:50:08.091Z,7.63
2018-08-10T20:52:37.342Z,9.23
2018-08-10T20:55:23.454Z,8.77
2018-08-10T20:58:04.376Z,8.43
2018-08-10T21:00:51.142Z,5.93
2018-08-10T21:03:21.048Z,9.63
2018-08-10T21:05:50.146Z,9.37
2018-08-10T21:11:16.772Z,9.13
2018-08-10T21:13:46.054Z,7.17
2018-08-10T21:16:20.104Z,7.07
2018-08-10T21:18:49.720Z,9.33
2018-08-10T21:21:19.221Z,6.70
2018-08-10T21:23:48.527Z,7.93
2018-08-10T21:26:35.100Z,7.93
2018-08-10T21:29:05.890Z,8.00
2018-08-10T21:31:35.498Z,10.80
2018-08-10T21:34:05.346Z,7.50
2018-08-10T21:36:34.609Z,8.97
2018-08-10T21:39:11.267Z,6.10
2018-08-10T21:53:11.841Z,7.03
2018-08-10T21:56:01.161Z,6.90
2018-08-10T21:58:55.183Z,10.23
2018-08-10T22:01:24.386Z,7.20
2018-08-10T22:04:09.516Z,7.37
2018-08-10T22:06:39.528Z,13.83
2018-08-10T22:09:12.821Z,6.87
2018-08-10T22:11:42.059Z,8.03
2018-08-10T22:14:23.358Z,8.50
2018-08-10T22:16:58.219Z,12.37
2018-08-10T22:19:27.395Z,7.50
2018-08-10T22:21:56.634Z,10.77
2018-08-10T22:24:29.818Z,7.20
2018-08-10T22:27:05.747Z,8.87
2018-08-10T22:29:39.301Z,8.90
2018-08-10T22:32:15.713Z,8.03
2018-08-10T22:34:53.041Z,9.40
2018-08-10T22:37:22.422Z,7.67
2018-08-10T22:39:59.808Z,7.43
2018-08-10T22:46:11.319Z,10.40
2018-08-10T22:48:40.541Z,7.60
2018-08-10T22:51:15.523Z,10.40
2018-08-10T22:53:44.766Z,7.20
2018-08-10T22:56:13.884Z,8.77
2018-08-10T22:58:57.745Z,8.57
2018-08-10T23:01:46.517Z,8.53
2018-08-10T23:04:55.388Z,8.67
2018-08-10T23:07:51.352Z,9.70
2018-08-10T23:10:44.729Z,9.93
2018-08-10T23:13:25.951Z,6.57
2018-08-10T23:16:08.362Z,10.20
2018-08-10T23:19:09.615Z,6.63
2018-08-10T23:24:45.992Z,9.20
2018-08-10T23:27:18.931Z,6.70
2018-08-10T23:30:09.577Z,6.90
2018-08-10T23:33:03.492Z,7.57
2018-08-10T23:35:32.926Z,9.63
2018-08-10T23:38:02.937Z,11.33
2018-08-10T23:40:33.680Z,6.40
2018-08-10T23:43:04.327Z,8.23
2018-08-10T23:45:54.190Z,9.07
2018-08-10T23:48:41.087Z,8.77
2018-08-10T23:51:10.479Z,8.67
2018-08-10T23:53:39.619Z,10.43
2018-08-10T23:56:08.995Z,8.83
2018-08-10T23:58:42.309Z,8.40
